Huescar, Spain
Current Conditions -  °F | °C
As of 4:00 PM on Thursday 30 Oct 2014 (Local Time) from LEAM Reporting Station
Clear Clear  
Wind Chill: 81°   Ceiling: Unl
Heat Index: 81°   Visibility: 6mi
Dew Point: 52°   Wind: 14mph
Humidity: 37%   Direction: 80°E
Pressure: 30.09"   Gusts: NA
Location:  37.81°N, 2.54°W
Report Text: LEAM 301500Z 08012KT 050V110 CAVOK 27/11 Q1019
Loading
Personal Weather Stations






























Interactive Weather Map
Tropical Storm Tracking
New forecast layout! Learn more

10-Day Weather Forecast

Advertisements
Track Severe Weather on mobile